createdAt,value
2022-08-17T00:02:26.049Z,100369.56
2022-08-17T00:04:55.284Z,100377.88
2022-08-17T00:07:22.890Z,100378.19
2022-08-17T00:09:50.340Z,100378.88
2022-08-17T00:12:43.735Z,100367.50
2022-08-17T00:15:05.726Z,100364.38
2022-08-17T00:17:35.763Z,100356.78
2022-08-17T00:20:03.665Z,100357.78
2022-08-17T00:22:35.576Z,100364.72
2022-08-17T00:25:08.822Z,100369.56
2022-08-17T00:27:36.939Z,100363.69
2022-08-17T00:30:05.947Z,100361.38
2022-08-17T00:33:11.941Z,100357.47
2022-08-17T00:35:39.362Z,100351.63
2022-08-17T00:38:09.776Z,100348.06
2022-08-17T00:40:40.034Z,100344.78
2022-08-17T00:43:29.899Z,100350.94
2022-08-17T00:45:57.825Z,100354.38
2022-08-17T00:48:50.188Z,100345.88
2022-08-17T00:51:23.133Z,100341.41
2022-08-17T00:53:54.565Z,100342.59
2022-08-17T00:56:28.912Z,100337.56
2022-08-17T00:58:56.152Z,100326.94
2022-08-17T01:01:23.550Z,100321.66
2022-08-17T01:03:51.842Z,100328.41
2022-08-17T01:06:20.336Z,100332.28
2022-08-17T01:08:47.598Z,100326.13
2022-08-17T01:11:15.073Z,100330.75
2022-08-17T01:13:43.496Z,100333.31
2022-08-17T01:16:16.407Z,100342.34
2022-08-17T01:18:45.379Z,100340.22
2022-08-17T01:21:20.254Z,100347.25
2022-08-17T01:23:47.488Z,100343.78
2022-08-17T01:26:14.657Z,100344.19
2022-08-17T01:28:55.260Z,100344.91
2022-08-17T01:31:24.678Z,100349.78
2022-08-17T01:33:52.152Z,100348.78
2022-08-17T01:36:19.493Z,100337.72
2022-08-17T01:38:46.739Z,100345.03
2022-08-17T01:41:15.623Z,100337.72
2022-08-17T01:44:09.033Z,100340.44
2022-08-17T01:46:36.994Z,100341.31
2022-08-17T01:49:11.239Z,100335.28
2022-08-17T01:51:39.032Z,100339.31
2022-08-17T01:54:08.419Z,100338.88
2022-08-17T01:56:38.676Z,100347.03
2022-08-17T01:59:06.453Z,100356.22
2022-08-17T02:01:34.702Z,100360.78
2022-08-17T02:04:02.186Z,100362.19
2022-08-17T02:06:31.410Z,100370.19
2022-08-17T02:09:02.709Z,100381.31
2022-08-17T02:11:32.842Z,100377.88
2022-08-17T02:14:02.825Z,100381.75
2022-08-17T02:16:37.703Z,100381.81
2022-08-17T02:19:07.144Z,100374.81
2022-08-17T02:21:34.826Z,100376.38
2022-08-17T02:24:02.171Z,100380.81
2022-08-17T02:26:29.422Z,100385.66
2022-08-17T02:28:56.812Z,100387.50
2022-08-17T02:31:23.990Z,100388.47
2022-08-17T02:34:03.528Z,100393.56
2022-08-17T02:36:32.999Z,100390.91
2022-08-17T02:39:04.728Z,100387.94
2022-08-17T02:41:32.402Z,100383.22
2022-08-17T02:44:00.334Z,100383.59
2022-08-17T02:46:28.298Z,100385.94
2022-08-17T02:48:58.666Z,100389.31
2022-08-17T02:51:26.389Z,100404.06
2022-08-17T02:53:53.678Z,100397.28
2022-08-17T02:56:40.908Z,100395.53
2022-08-17T02:59:08.357Z,100394.31
2022-08-17T03:01:35.635Z,100400.72
2022-08-17T03:04:02.954Z,100390.31
2022-08-17T03:06:31.822Z,100396.28
2022-08-17T03:08:59.121Z,100405.31
2022-08-17T03:11:26.405Z,100398.44
2022-08-17T03:13:53.734Z,100393.41
2022-08-17T03:16:20.982Z,100384.19
2022-08-17T03:18:48.582Z,100384.06
2022-08-17T03:21:15.885Z,100387.63
2022-08-17T03:23:43.242Z,100387.78
2022-08-17T03:26:12.288Z,100389.94
2022-08-17T03:28:42.933Z,100388.22
2022-08-17T03:31:10.173Z,100383.91
2022-08-17T03:33:37.521Z,100375.91
2022-08-17T03:36:05.010Z,100387.34
2022-08-17T03:38:39.047Z,100380.91
2022-08-17T03:41:06.984Z,100377.19
2022-08-17T03:43:34.720Z,100366.06
2022-08-17T03:46:28.272Z,100368.09
2022-08-17T03:49:25.013Z,100367.97
2022-08-17T03:52:11.934Z,100366.50
2022-08-17T03:54:57.898Z,100357.81
2022-08-17T03:57:26.062Z,100354.25
2022-08-17T03:59:53.747Z,100353.09
2022-08-17T04:02:23.265Z,100347.50
2022-08-17T04:04:51.100Z,100349.66
2022-08-17T04:07:19.685Z,100366.94
2022-08-17T04:09:47.510Z,100375.28
2022-08-17T04:12:15.527Z,100382.63
2022-08-17T04:14:51.785Z,100380.91
2022-08-17T04:17:20.628Z,100369.75
2022-08-17T04:19:47.853Z,100380.09
2022-08-17T04:22:32.597Z,100373.66
2022-08-17T04:25:02.356Z,100371.03
2022-08-17T04:27:29.615Z,100380.50
2022-08-17T04:29:56.943Z,100374.53
2022-08-17T04:33:09.851Z,100375.25
2022-08-17T04:35:11.567Z,100365.59
2022-08-17T04:37:38.914Z,100363.47
2022-08-17T04:40:26.474Z,100360.03
2022-08-17T04:43:21.234Z,100366.19
2022-08-17T04:45:55.700Z,100372.91
2022-08-17T04:48:35.517Z,100382.06
2022-08-17T04:51:10.349Z,100381.88
2022-08-17T04:53:38.836Z,100385.69
2022-08-17T04:56:06.316Z,100380.56
2022-08-17T04:58:33.832Z,100383.91
2022-08-17T05:01:01.597Z,100384.28
2022-08-17T05:03:29.213Z,100385.00
2022-08-17T05:05:56.579Z,100387.47
2022-08-17T05:08:23.809Z,100391.84
2022-08-17T05:10:51.061Z,100404.50
2022-08-17T05:13:19.832Z,100414.66
2022-08-17T05:15:48.082Z,100432.81
2022-08-17T05:18:16.920Z,100430.13
2022-08-17T05:20:46.875Z,100443.09
2022-08-17T05:23:15.688Z,100433.84
2022-08-17T05:25:47.472Z,100434.44
2022-08-17T05:28:16.093Z,100432.44
2022-08-17T05:30:45.337Z,100442.47
2022-08-17T05:33:18.836Z,100453.06
2022-08-17T05:35:47.741Z,100465.63
2022-08-17T05:38:16.290Z,100466.94
2022-08-17T05:40:44.084Z,100474.56
2022-08-17T05:43:11.349Z,100461.78
2022-08-17T05:46:01.985Z,100462.38
2022-08-17T05:48:35.266Z,100468.31
2022-08-17T05:51:33.151Z,100478.75
2022-08-17T05:54:06.866Z,100475.34
2022-08-17T05:56:49.310Z,100480.38
2022-08-17T05:59:22.567Z,100490.00
2022-08-17T06:01:49.893Z,100494.38
2022-08-17T06:04:20.181Z,100503.44
2022-08-17T06:06:47.603Z,100495.75
2022-08-17T06:09:26.601Z,100501.94
2022-08-17T06:12:03.666Z,100504.53
2022-08-17T06:14:46.391Z,100510.88
2022-08-17T06:17:16.215Z,100505.22
2022-08-17T06:19:54.493Z,100501.31
2022-08-17T06:22:23.857Z,100508.69
2022-08-17T06:24:57.852Z,100512.41
2022-08-17T06:27:25.044Z,100509.97
2022-08-17T06:30:02.741Z,100515.13
2022-08-17T06:32:31.223Z,100513.56
2022-08-17T06:35:00.503Z,100514.06
2022-08-17T06:37:39.246Z,100515.31
2022-08-17T06:40:25.189Z,100519.97
2022-08-17T06:43:12.688Z,100525.91
2022-08-17T06:45:49.563Z,100527.59
2022-08-17T06:48:17.966Z,100524.06
2022-08-17T06:50:53.409Z,100528.69
2022-08-17T06:53:24.554Z,100535.22
2022-08-17T06:55:52.257Z,100521.19
2022-08-17T06:58:22.308Z,100512.81
2022-08-17T07:00:56.617Z,100517.09
2022-08-17T07:03:38.009Z,100528.56
2022-08-17T07:06:08.550Z,100521.28
2022-08-17T07:08:57.875Z,100519.81
2022-08-17T07:11:38.458Z,100516.66
2022-08-17T07:14:17.187Z,100512.09
2022-08-17T07:16:47.205Z,100502.63
2022-08-17T07:19:16.868Z,100494.75
2022-08-17T07:21:55.082Z,100495.03
2022-08-17T07:24:30.839Z,100498.63
2022-08-17T07:27:21.281Z,100508.41
2022-08-17T07:29:57.049Z,100502.78
2022-08-17T07:32:31.840Z,100499.22
2022-08-17T07:35:00.162Z,100499.31
2022-08-17T07:37:27.465Z,100485.13
2022-08-17T07:39:59.655Z,100492.88
2022-08-17T07:42:46.557Z,100487.16
2022-08-17T07:45:34.574Z,100473.91
2022-08-17T07:48:19.868Z,100473.50
2022-08-17T07:50:49.595Z,100470.91
2022-08-17T07:53:23.244Z,100476.34
2022-08-17T07:55:51.685Z,100479.59
2022-08-17T07:58:23.444Z,100482.00
2022-08-17T08:01:08.295Z,100467.09
2022-08-17T08:03:40.998Z,100462.50
2022-08-17T08:06:23.694Z,100471.00
2022-08-17T08:08:52.530Z,100472.25
2022-08-17T08:11:30.609Z,100472.91
2022-08-17T08:14:17.025Z,100478.69
2022-08-17T08:16:56.429Z,100484.81
2022-08-17T08:19:26.009Z,100486.53
2022-08-17T08:22:09.632Z,100482.34
2022-08-17T08:24:55.850Z,100469.59
2022-08-17T08:27:34.553Z,100471.22
2022-08-17T08:30:05.279Z,100460.34
2022-08-17T08:32:33.141Z,100462.00
2022-08-17T08:35:02.696Z,100483.78
2022-08-17T08:37:49.980Z,100474.91
2022-08-17T08:40:20.507Z,100471.66
2022-08-17T08:43:00.101Z,100462.16
2022-08-17T08:45:32.279Z,100478.47
2022-08-17T08:48:56.740Z,100477.44
2022-08-17T08:51:46.237Z,100479.38
2022-08-17T08:54:35.944Z,100481.78
2022-08-17T09:00:04.810Z,100454.78
2022-08-17T09:02:46.891Z,100457.41
2022-08-17T09:05:39.274Z,100474.47
2022-08-17T09:08:09.251Z,100483.25
2022-08-17T09:10:55.908Z,100481.84
2022-08-17T09:13:26.132Z,100485.16
2022-08-17T09:16:15.353Z,100476.25
2022-08-17T09:19:02.448Z,100478.28
2022-08-17T09:21:48.547Z,100469.25
2022-08-17T09:24:20.711Z,100463.31
2022-08-17T09:27:08.962Z,100461.72
2022-08-17T09:29:39.116Z,100473.69
2022-08-17T09:32:26.638Z,100468.16
2022-08-17T09:34:56.901Z,100471.81
2022-08-17T09:37:32.489Z,100463.78
2022-08-17T09:40:09.664Z,100471.31
2022-08-17T09:42:39.938Z,100476.81
2022-08-17T09:45:07.218Z,100471.00
2022-08-17T09:47:45.604Z,100470.97
2022-08-17T09:50:13.418Z,100461.91
2022-08-17T09:52:42.124Z,100471.28
2022-08-17T09:55:09.629Z,100468.38
2022-08-17T09:57:39.894Z,100463.78
2022-08-17T10:00:17.285Z,100461.53
2022-08-17T10:02:48.470Z,100458.31
2022-08-17T10:05:21.748Z,100466.00
2022-08-17T10:07:56.069Z,100460.88
2022-08-17T10:10:52.468Z,100471.47
2022-08-17T10:13:50.977Z,100457.56
2022-08-17T10:16:26.136Z,100466.53
2022-08-17T10:18:53.464Z,100453.84
2022-08-17T10:21:40.550Z,100464.56
2022-08-17T10:24:35.570Z,100462.72
2022-08-17T10:27:07.562Z,100480.03
2022-08-17T10:29:49.190Z,100472.50
2022-08-17T10:32:26.312Z,100474.59
2022-08-17T10:35:16.801Z,100479.72
2022-08-17T10:37:50.136Z,100481.28
2022-08-17T10:40:17.981Z,100474.91
2022-08-17T10:42:49.055Z,100486.22
2022-08-17T10:45:26.204Z,100487.28
2022-08-17T10:48:04.781Z,100480.09
2022-08-17T10:50:44.050Z,100490.19
2022-08-17T10:53:31.189Z,100489.16
2022-08-17T10:56:13.840Z,100483.50
2022-08-17T10:58:50.252Z,100477.16
2022-08-17T11:01:17.653Z,100479.41
2022-08-17T11:03:54.781Z,100486.44
2022-08-17T11:06:41.991Z,100483.00
2022-08-17T11:09:12.254Z,100473.25
2022-08-17T11:11:51.876Z,100472.72
2022-08-17T11:14:25.290Z,100467.75
2022-08-17T11:16:58.808Z,100469.63
2022-08-17T11:19:28.741Z,100459.31
2022-08-17T11:22:01.728Z,100461.03
2022-08-17T11:24:36.506Z,100450.03
2022-08-17T11:27:12.344Z,100447.66
2022-08-17T11:30:12.266Z,100441.97
2022-08-17T11:32:47.129Z,100440.63
2022-08-17T11:35:15.097Z,100437.19
2022-08-17T11:38:01.892Z,100438.56
2022-08-17T11:40:48.156Z,100438.38
2022-08-17T11:43:38.375Z,100421.41
2022-08-17T11:46:14.194Z,100421.75
2022-08-17T11:49:15.413Z,100420.72
2022-08-17T11:52:07.822Z,100419.88
2022-08-17T11:54:48.633Z,100418.16
2022-08-17T11:57:27.941Z,100414.00
2022-08-17T11:59:58.969Z,100415.72
2022-08-17T12:02:29.877Z,100412.44
2022-08-17T12:05:17.070Z,100413.03
2022-08-17T12:08:07.925Z,100417.81
2022-08-17T12:10:36.801Z,100421.06
2022-08-17T12:13:10.522Z,100420.56
2022-08-17T12:15:42.485Z,100430.50
2022-08-17T12:18:18.162Z,100435.31
2022-08-17T12:20:46.748Z,100437.56
2022-08-17T12:23:28.466Z,100436.53
2022-08-17T12:25:59.679Z,100437.69
2022-08-17T12:28:31.282Z,100431.34
2022-08-17T12:31:06.017Z,100450.91
2022-08-17T12:33:36.039Z,100443.34
2022-08-17T12:36:05.584Z,100436.34
2022-08-17T12:38:34.713Z,100438.91
2022-08-17T12:41:23.509Z,100440.44
2022-08-17T12:44:02.393Z,100441.81
2022-08-17T12:46:33.477Z,100438.72
2022-08-17T12:49:54.450Z,100432.88
2022-08-17T12:52:24.571Z,100427.56
2022-08-17T12:55:01.845Z,100416.59
2022-08-17T12:57:33.994Z,100415.91
2022-08-17T13:00:19.970Z,100416.94
2022-08-17T13:02:49.162Z,100430.63
2022-08-17T13:05:36.601Z,100428.56
2022-08-17T13:08:17.249Z,100431.81
2022-08-17T13:10:54.066Z,100421.53
2022-08-17T13:13:26.471Z,100421.53
2022-08-17T13:15:53.666Z,100432.84
2022-08-17T13:18:42.034Z,100427.03
2022-08-17T13:21:18.858Z,100428.25
2022-08-17T13:24:00.607Z,100426.16
2022-08-17T13:26:33.009Z,100421.88
2022-08-17T13:29:01.385Z,100420.16
2022-08-17T13:31:28.536Z,100421.22
2022-08-17T13:34:56.194Z,100426.69
2022-08-17T13:37:35.137Z,100434.94
2022-08-17T13:40:22.260Z,100438.03
2022-08-17T13:42:52.572Z,100436.09
2022-08-17T13:45:39.408Z,100438.00
2022-08-17T13:48:16.020Z,100440.41
2022-08-17T13:51:03.921Z,100432.69
2022-08-17T13:53:33.060Z,100434.41
2022-08-17T13:56:00.352Z,100415.34
2022-08-17T13:58:29.842Z,100422.38
2022-08-17T14:00:57.129Z,100414.31
2022-08-17T14:03:25.159Z,100412.09
2022-08-17T14:05:52.822Z,100405.41
2022-08-17T14:08:20.786Z,100405.41
2022-08-17T14:10:56.431Z,100400.09
2022-08-17T14:13:23.892Z,100388.06
2022-08-17T14:15:54.757Z,100381.53
2022-08-17T14:18:53.500Z,100379.47
2022-08-17T14:21:11.255Z,100365.56
2022-08-17T14:23:38.689Z,100361.78
2022-08-17T14:26:05.969Z,100361.09
2022-08-17T14:28:33.194Z,100358.91
2022-08-17T14:31:03.647Z,100355.63
2022-08-17T14:33:30.899Z,100359.94
2022-08-17T14:35:58.260Z,100350.97
2022-08-17T14:38:25.765Z,100347.75
2022-08-17T14:40:53.042Z,100352.94
2022-08-17T14:43:20.988Z,100358.94
2022-08-17T14:45:48.169Z,100363.91
2022-08-17T14:48:15.912Z,100364.97
2022-08-17T14:50:43.805Z,100349.84
2022-08-17T14:53:12.071Z,100336.47
2022-08-17T14:55:42.307Z,100310.06
2022-08-17T14:58:09.546Z,100308.19
2022-08-17T15:00:36.834Z,100316.72
2022-08-17T15:03:04.123Z,100312.28
2022-08-17T15:05:33.787Z,100312.44
2022-08-17T15:08:01.715Z,100306.78
2022-08-17T15:10:29.420Z,100298.72
2022-08-17T15:12:56.786Z,100299.56
2022-08-17T15:15:24.215Z,100300.59
2022-08-17T15:17:51.662Z,100295.59
2022-08-17T15:20:20.791Z,100299.38
2022-08-17T15:22:55.631Z,100296.31
2022-08-17T15:25:24.348Z,100287.56
2022-08-17T15:27:51.986Z,100274.88
2022-08-17T15:30:19.955Z,100279.19
2022-08-17T15:32:54.429Z,100270.78
2022-08-17T15:35:27.349Z,100283.66
2022-08-17T15:38:11.829Z,100282.28
2022-08-17T15:40:41.146Z,100282.09
2022-08-17T15:43:11.358Z,100282.63
2022-08-17T15:45:38.635Z,100288.63
2022-08-17T15:48:06.245Z,100292.25
2022-08-17T15:50:37.959Z,100281.09
2022-08-17T15:53:05.906Z,100282.66
2022-08-17T15:55:34.093Z,100289.31
2022-08-17T15:58:01.472Z,100288.63
2022-08-17T16:00:29.518Z,100297.72
2022-08-17T16:03:44.311Z,100295.31
2022-08-17T16:05:47.274Z,100305.59
2022-08-17T16:08:20.117Z,100308.91
2022-08-17T16:10:49.622Z,100319.88
2022-08-17T16:13:18.206Z,100331.69
2022-08-17T16:15:54.846Z,100332.56
2022-08-17T16:18:26.481Z,100344.38
2022-08-17T16:20:55.307Z,100339.94
2022-08-17T16:23:22.949Z,100320.91
2022-08-17T16:25:53.768Z,100322.94
2022-08-17T16:28:23.439Z,100314.38
2022-08-17T16:31:03.840Z,100308.03
2022-08-17T16:33:31.786Z,100310.97
2022-08-17T16:35:59.078Z,100302.03
2022-08-17T16:38:27.089Z,100274.78
2022-08-17T16:40:54.326Z,100270.50
2022-08-17T16:43:21.684Z,100264.66
2022-08-17T16:45:52.115Z,100255.94
2022-08-17T16:48:19.813Z,100253.72
2022-08-17T16:51:03.370Z,100255.06
2022-08-17T16:53:31.923Z,100242.75
2022-08-17T16:55:59.161Z,100245.63
2022-08-17T16:58:26.530Z,100246.31
2022-08-17T17:00:54.476Z,100250.09
2022-08-17T17:03:24.780Z,100242.22
2022-08-17T17:06:13.482Z,100246.47
2022-08-17T17:08:46.807Z,100244.94
2022-08-17T17:11:16.150Z,100275.09
2022-08-17T17:13:47.131Z,100289.47
2022-08-17T17:16:21.602Z,100288.59
2022-08-17T17:19:03.360Z,100301.78
2022-08-17T17:21:56.423Z,100304.50
2022-08-17T17:24:41.386Z,100300.06
2022-08-17T17:27:20.980Z,100299.00
2022-08-17T17:29:49.163Z,100291.81
2022-08-17T17:32:25.219Z,100284.28
2022-08-17T17:34:56.664Z,100284.09
2022-08-17T17:37:27.454Z,100293.13
2022-08-17T17:39:56.858Z,100304.41
2022-08-17T17:42:28.373Z,100308.66
2022-08-17T17:44:58.715Z,100296.97
2022-08-17T17:47:26.674Z,100310.28
2022-08-17T17:49:59.845Z,100326.19
2022-08-17T17:52:36.365Z,100329.91
2022-08-17T17:55:09.600Z,100339.91
2022-08-17T17:57:49.418Z,100362.91
2022-08-17T18:00:19.178Z,100377.75
2022-08-17T18:02:53.113Z,100374.50
2022-08-17T18:05:21.169Z,100362.72
2022-08-17T18:07:55.524Z,100355.00
2022-08-17T18:10:33.764Z,100365.94
2022-08-17T18:13:01.039Z,100386.41
2022-08-17T18:15:51.295Z,100414.75
2022-08-17T18:18:18.702Z,100419.53
2022-08-17T18:20:53.681Z,100417.19
2022-08-17T18:23:28.319Z,100389.84
2022-08-17T18:25:57.077Z,100380.25
2022-08-17T18:28:29.570Z,100395.22
2022-08-17T18:31:15.032Z,100407.38
2022-08-17T18:33:43.599Z,100407.44
2022-08-17T18:36:11.629Z,100416.84
2022-08-17T18:38:40.879Z,100426.56
2022-08-17T18:41:23.766Z,100429.56
2022-08-17T18:44:23.380Z,100416.06
2022-08-17T18:47:20.127Z,100439.38
2022-08-17T18:49:49.278Z,100454.69
2022-08-17T18:52:21.957Z,100451.06
2022-08-17T18:55:01.159Z,100445.00
2022-08-17T18:57:40.082Z,100469.22
2022-08-17T19:00:14.826Z,100467.47
2022-08-17T19:02:52.423Z,100450.38
2022-08-17T19:05:33.087Z,100457.72
2022-08-17T19:08:26.505Z,100480.00
2022-08-17T19:11:02.785Z,100468.25
2022-08-17T19:13:43.064Z,100448.72
2022-08-17T19:16:17.588Z,100459.63
2022-08-17T19:18:44.850Z,100469.97
2022-08-17T19:21:16.459Z,100497.47
2022-08-17T19:23:54.571Z,100490.50
2022-08-17T19:26:53.884Z,100468.84
2022-08-17T19:29:11.824Z,100473.16
2022-08-17T19:31:40.975Z,100468.03
2022-08-17T19:34:08.526Z,100468.44
2022-08-17T19:36:44.289Z,100460.59
2022-08-17T19:39:18.247Z,100463.75
2022-08-17T19:41:50.842Z,100466.69
2022-08-17T19:44:26.998Z,100458.47
2022-08-17T19:47:12.337Z,100455.47
2022-08-17T19:49:40.730Z,100451.47
2022-08-17T19:52:30.762Z,100443.19
2022-08-17T19:55:05.700Z,100430.06
2022-08-17T19:57:32.925Z,100446.44
2022-08-17T20:00:00.278Z,100450.44
2022-08-17T20:02:37.618Z,100441.66
2022-08-17T20:05:08.556Z,100436.78
2022-08-17T20:07:46.423Z,100435.25
2022-08-17T20:10:20.627Z,100431.09
2022-08-17T20:12:51.102Z,100436.53
2022-08-17T20:15:25.199Z,100445.41
2022-08-17T20:17:53.003Z,100438.63
2022-08-17T20:20:24.661Z,100428.13
2022-08-17T20:23:10.589Z,100431.47
2022-08-17T20:25:53.060Z,100439.94
2022-08-17T20:28:24.945Z,100429.53
2022-08-17T20:30:52.587Z,100428.75
2022-08-17T20:33:31.641Z,100444.16
2022-08-17T20:36:02.073Z,100442.28
2022-08-17T20:38:55.683Z,100456.69
2022-08-17T20:41:24.346Z,100465.22
2022-08-17T20:43:57.364Z,100457.69
2022-08-17T20:46:36.835Z,100471.63
2022-08-17T20:49:18.898Z,100484.72
2022-08-17T20:51:46.232Z,100492.06
2022-08-17T20:54:42.782Z,100481.81
2022-08-17T20:57:30.005Z,100480.31
2022-08-17T21:00:18.205Z,100468.50
2022-08-17T21:02:46.973Z,100469.41
2022-08-17T21:05:37.705Z,100471.84
2022-08-17T21:08:18.397Z,100472.81
2022-08-17T21:10:46.998Z,100462.66
2022-08-17T21:13:15.390Z,100453.06
2022-08-17T21:16:00.884Z,100446.38
2022-08-17T21:18:38.647Z,100447.66
2022-08-17T21:21:17.759Z,100444.50
2022-08-17T21:24:12.763Z,100437.34
2022-08-17T21:26:50.364Z,100437.28
2022-08-17T21:29:32.368Z,100446.47
2022-08-17T21:32:05.523Z,100447.38
2022-08-17T21:34:33.638Z,100452.16
2022-08-17T21:37:19.799Z,100458.69
2022-08-17T21:39:51.494Z,100463.84
2022-08-17T21:42:31.184Z,100463.97
2022-08-17T21:45:09.225Z,100466.97
2022-08-17T21:47:43.538Z,100461.53
2022-08-17T21:50:30.051Z,100455.81
2022-08-17T21:52:58.848Z,100453.09
2022-08-17T21:55:28.409Z,100453.38
2022-08-17T21:58:12.207Z,100450.38
2022-08-17T22:00:44.637Z,100446.06
2022-08-17T22:03:23.517Z,100454.81
2022-08-17T22:05:51.564Z,100457.19
2022-08-17T22:08:20.509Z,100460.84
2022-08-17T22:10:50.661Z,100457.28
2022-08-17T22:13:17.943Z,100455.97
2022-08-17T22:15:49.938Z,100452.84
2022-08-17T22:18:19.873Z,100460.00
2022-08-17T22:20:51.746Z,100466.56
2022-08-17T22:23:42.543Z,100464.56
2022-08-17T22:26:12.729Z,100455.69
2022-08-17T22:28:40.265Z,100453.34
2022-08-17T22:31:09.035Z,100454.34
2022-08-17T22:33:40.388Z,100445.59
2022-08-17T22:36:11.079Z,100443.34
2022-08-17T22:38:38.890Z,100446.19
2022-08-17T22:41:24.669Z,100444.75
2022-08-17T22:43:53.097Z,100447.88
2022-08-17T22:46:23.891Z,100439.09
2022-08-17T22:48:54.112Z,100441.41
2022-08-17T22:51:23.906Z,100441.56
2022-08-17T22:54:17.588Z,100432.66
2022-08-17T22:57:09.987Z,100431.00
2022-08-17T22:59:57.580Z,100424.22
2022-08-17T23:02:26.522Z,100415.66
2022-08-17T23:05:12.966Z,100401.81
2022-08-17T23:07:40.751Z,100411.16
2022-08-17T23:10:11.481Z,100409.66
2022-08-17T23:12:39.644Z,100411.25
2022-08-17T23:15:12.663Z,100407.91
2022-08-17T23:17:41.932Z,100420.06
2022-08-17T23:20:12.457Z,100409.19
2022-08-17T23:22:52.262Z,100397.31
2022-08-17T23:25:30.459Z,100392.03
2022-08-17T23:27:59.209Z,100394.94
2022-08-17T23:30:28.449Z,100391.22
2022-08-17T23:32:56.570Z,100392.84
2022-08-17T23:35:40.508Z,100384.13
2022-08-17T23:38:11.920Z,100391.63
2022-08-17T23:40:40.011Z,100377.25
2022-08-17T23:43:24.059Z,100380.28
2022-08-17T23:45:53.605Z,100381.34
2022-08-17T23:48:35.133Z,100368.97
2022-08-17T23:51:06.065Z,100362.25
2022-08-17T23:53:34.885Z,100351.16
2022-08-17T23:56:07.652Z,100346.44
2022-08-17T23:58:38.711Z,100343.00
